Terminal Aerodrome Forecast
Issued by NWS

Home | Current Version | Previous Version | Graphics & Text | Print | Product List | Glossary On
Versions: 1 2 3 4 5 6 7 8 9 10 11 12 13 14 15 16 17 18 19 20 21 22 23
000
FTUS43 KBIS 202333
TAFJMS
TAF
KJMS 202333Z 2100/2124 28013KT P6SM FEW200
     FM210700 20006KT P6SM BKN090
     FM211100 19008KT P6SM BKN090 WS020/26035KT
     FM211500 27011KT P6SM BKN080=

USA.gov is the U.S. government's official web portal to all federal, state and local government web resources and services.